Novato, CA

11:16 PM PDT on June 28, 2017 (GMT -0700)
Gnoss

Weather History for KDVO - December, 2013

Change the Weather History Date:

Tuesday, December 17, 2013

  Actual Average (KAPC) Record (KAPC)
Temperature  
Mean Temperature 48 °F -  
Max Temperature 62 °F 58 °F 66 °F (2000)
Min Temperature 35 °F 38 °F 24 °F (2008)
Degree Days  
Heating Degree Days 16    
Moisture  
Dew Point 39 °F    
Average Humidity 72    
Maximum Humidity 100    
Minimum Humidity 42    
Precipitation  
Precipitation 0.00 in - - ()
Sea Level Pressure  
Sea Level Pressure 30.13 in    
Wind  
Wind Speed 7 mph (SSW)    
Max Wind Speed 10 mph    
Max Gust Speed -    
Visibility 6 miles    
Events      
Averages and records for this station are not official NWS values.
T = Trace of Precipitation, MM = Missing Value Source: NWS Daily Summary

Daily Weather History Graph

Daily Weather History Graph

Search for Another Location

Airport or City:

Trip Planner

Search our weather history database for the weather conditions in past years. The results will help you decide how hot, cold, wet, or windy it might be!

Date:

Astronomy

Dec. 17, 2013 Rise Set
Actual Time 7:20 AM PST 4:52 PM PST
Civil Twilight 6:51 AM PST 5:21 PM PST
Nautical Twilight 6:18 AM PST 5:54 PM PST
Astronomical Twilight 5:46 AM PST 6:27 PM PST
Moon 5:35 PM PST (12/17) 7:22 AM PST (12/17)
Length of Visible Light 10h 30m
Length of Day
9h 31m
Full, 100% of the Moon is Illuminated
Dec 17
Full
Dec 25
Last Quarter
Jan 1
New
Jan 7
First Quarter
Jan 15
Full

Hourly Weather History & Observations

Time (PST) Temp. Windchill Dew Point Humidity Pressure Visibility Wind Dir Wind Speed Gust Speed Precip Events Conditions
12:15 AM 44.6 °F 40.7 °F 37.4 °F 76% 30.18 in 6.0 mi South 6.9 mph - N/A   Haze
12:35 AM 44.6 °F 40.2 °F 37.4 °F 76% 30.17 in 5.0 mi South 8.1 mph - N/A   Haze
12:55 AM 42.8 °F 37.5 °F 37.4 °F 81% 30.17 in 5.0 mi South 9.2 mph - N/A   Haze
1:15 AM 42.8 °F 38.6 °F 37.4 °F 81% 30.18 in 5.0 mi South 6.9 mph - N/A   Haze
1:35 AM 44.6 °F 40.7 °F 37.4 °F 76% 30.18 in 5.0 mi South 6.9 mph - N/A   Haze
1:55 AM 42.8 °F 38.0 °F 37.4 °F 81% 30.18 in 6.0 mi South 8.1 mph - N/A   Haze
2:15 AM 41.0 °F 37.1 °F 37.4 °F 87% 30.19 in 5.0 mi SSW 5.8 mph - N/A   Mist
2:35 AM 41.0 °F 39.0 °F 37.4 °F 87% 30.19 in 5.0 mi SSW 3.5 mph - N/A   Clear
2:55 AM 41.0 °F 38.0 °F 37.4 °F 87% 30.19 in 5.0 mi South 4.6 mph - N/A   Clear
3:15 AM 41.0 °F 36.4 °F 37.4 °F 87% 30.19 in 5.0 mi South 6.9 mph - N/A   Clear
3:35 AM 41.0 °F 36.4 °F 37.4 °F 87% 30.18 in 5.0 mi SSE 6.9 mph - N/A   Clear
3:55 AM 42.8 °F 38.6 °F 37.4 °F 81% 30.18 in 5.0 mi South 6.9 mph - N/A   Haze
4:15 AM 41.0 °F 35.8 °F 37.4 °F 87% 30.17 in 5.0 mi South 8.1 mph - N/A   Clear
4:35 AM 41.0 °F 36.4 °F 37.4 °F 87% 30.17 in 4.0 mi South 6.9 mph - N/A   Clear
4:55 AM 41.0 °F 35.8 °F 37.4 °F 87% 30.17 in 4.0 mi South 8.1 mph - N/A   Clear
5:15 AM 41.0 °F 36.4 °F 37.4 °F 87% 30.17 in 4.0 mi SSW 6.9 mph - N/A   Clear
5:35 AM 41.0 °F 35.2 °F 37.4 °F 87% 30.17 in 3.0 mi South 9.2 mph - N/A   Clear
5:55 AM 41.0 °F 35.8 °F 37.4 °F 87% 30.17 in 3.0 mi SSW 8.1 mph - N/A   Clear
6:15 AM 41.0 °F 35.2 °F 39.2 °F 93% 30.17 in 3.0 mi South 9.2 mph - N/A   Clear
6:35 AM 48.2 °F - 39.2 °F 71% 30.17 in 4.0 mi SW 10.4 mph - N/A   Haze
6:55 AM 48.2 °F - 39.2 °F 71% 30.18 in 4.0 mi SW 10.4 mph - N/A   Haze
7:15 AM 46.4 °F 42.4 °F 39.2 °F 76% 30.18 in 4.0 mi SSW 8.1 mph - N/A   Haze
7:35 AM 46.4 °F 41.5 °F 39.2 °F 76% 30.18 in 3.0 mi SW 10.4 mph - N/A   Haze
7:55 AM 48.2 °F - 39.2 °F 71% 30.19 in 3.0 mi SW 8.1 mph - N/A   Haze
8:15 AM 48.2 °F - 39.2 °F 71% 30.19 in 3.0 mi SSW 9.2 mph - N/A   Haze
8:35 AM 50.0 °F - 39.2 °F 66% 30.19 in 3.0 mi SW 10.4 mph - N/A   Haze
8:55 AM 50.0 °F - 39.2 °F 66% 30.19 in 3.0 mi SSW 10.4 mph - N/A   Haze
9:15 AM 50.0 °F - 39.2 °F 66% 30.20 in 3.0 mi SSW 10.4 mph - N/A   Haze
9:35 AM 50.0 °F - 41.0 °F 71% 30.20 in 3.0 mi SSW 10.4 mph - N/A   Haze
9:55 AM 51.8 °F - 39.2 °F 62% 30.20 in 4.0 mi SSW 9.2 mph - N/A   Haze
10:15 AM 53.6 °F - 39.2 °F 58% 30.20 in 4.0 mi SSW 8.1 mph - N/A   Haze
10:35 AM 55.4 °F - 39.2 °F 54% 30.19 in 5.0 mi SSW 8.1 mph - N/A   Haze
10:55 AM 55.4 °F - 39.2 °F 54% 30.19 in 5.0 mi SW 9.2 mph - N/A   Haze
11:15 AM 57.2 °F - 39.2 °F 51% 30.18 in 5.0 mi SW 6.9 mph - N/A   Haze
11:35 AM 57.2 °F - 39.2 °F 51% 30.17 in 5.0 mi SSE 4.6 mph - N/A   Haze
11:55 AM 57.2 °F - 39.2 °F 51% 30.15 in 6.0 mi South 6.9 mph - N/A   Haze
12:15 PM 59.0 °F - 39.2 °F 48% 30.14 in 8.0 mi SSW 6.9 mph - N/A   Clear
12:35 PM 59.0 °F - 39.2 °F 48% 30.13 in 7.0 mi SSW 6.9 mph - N/A   Clear
12:55 PM 60.8 °F - 39.2 °F 45% 30.12 in 8.0 mi South 4.6 mph - N/A   Clear
1:15 PM 62.6 °F - 39.2 °F 42% 30.11 in 8.0 mi South 5.8 mph - N/A   Clear
1:35 PM 62.6 °F - 39.2 °F 42% 30.10 in 8.0 mi South 6.9 mph - N/A   Clear
1:55 PM 62.6 °F - 39.2 °F 42% 30.10 in 8.0 mi SSW 8.1 mph - N/A   Clear
2:15 PM 60.8 °F - 39.2 °F 45% 30.09 in 7.0 mi South 9.2 mph - N/A   Clear
2:35 PM 62.6 °F - 39.2 °F 42% 30.09 in 7.0 mi South 6.9 mph - N/A   Clear
2:55 PM 62.6 °F - 39.2 °F 42% 30.09 in 8.0 mi South 10.4 mph - N/A   Clear
3:15 PM 59.0 °F - 41.0 °F 51% 30.09 in 7.0 mi South 10.4 mph - N/A   Clear
3:35 PM 59.0 °F - 41.0 °F 51% 30.09 in 7.0 mi SSW 6.9 mph - N/A   Clear
3:55 PM 59.0 °F - 41.0 °F 51% 30.08 in 7.0 mi SSW 8.1 mph - N/A   Clear
4:15 PM 59.0 °F - 39.2 °F 48% 30.08 in 6.0 mi South 8.1 mph - N/A   Haze
4:35 PM 57.2 °F - 41.0 °F 55% 30.08 in 7.0 mi SSW 5.8 mph - N/A   Clear
4:55 PM 57.2 °F - 39.2 °F 51% 30.07 in 6.0 mi SW 6.9 mph - N/A   Haze
5:15 PM 55.4 °F - 41.0 °F 58% 30.07 in 7.0 mi SSW 6.9 mph - N/A   Clear
5:35 PM 51.8 °F - 41.0 °F 67% 30.07 in 8.0 mi SSW 6.9 mph - N/A   Clear
5:55 PM 50.0 °F - 39.2 °F 66% 30.07 in 8.0 mi SSW 6.9 mph - N/A   Clear
6:15 PM 50.0 °F - 39.2 °F 66% 30.07 in 8.0 mi SSW 6.9 mph - N/A   Clear
6:35 PM 48.2 °F - 39.2 °F 71% 30.08 in 8.0 mi South 6.9 mph - N/A   Clear
6:55 PM 46.4 °F 43.5 °F 39.2 °F 76% 30.07 in 8.0 mi SSW 5.8 mph - N/A   Clear
7:15 PM 48.2 °F - 41.0 °F 76% 30.08 in 8.0 mi Calm Calm - N/A   Clear
7:35 PM 42.8 °F - 39.2 °F 87% 30.07 in 5.0 mi Calm Calm - N/A   Clear
7:55 PM 42.8 °F - 39.2 °F 87% 30.07 in 6.0 mi Calm Calm - N/A   Clear
8:15 PM 44.6 °F - 39.2 °F 81% 30.07 in 7.0 mi Calm Calm - N/A   Clear
8:35 PM 42.8 °F - 39.2 °F 87% 30.07 in 7.0 mi Calm Calm - N/A   Clear
8:55 PM 37.4 °F - 37.4 °F 100% 30.08 in 7.0 mi Calm Calm - N/A   Clear
9:15 PM 39.2 °F - 37.4 °F 93% 30.08 in 7.0 mi Calm Calm - N/A   Clear
9:35 PM 39.2 °F 37.0 °F 37.4 °F 93% 30.07 in 8.0 mi SSW 3.5 mph - N/A   Clear
9:55 PM 41.0 °F 38.0 °F 39.2 °F 93% 30.07 in 7.0 mi SSW 4.6 mph - N/A   Clear
10:15 PM 39.2 °F 37.0 °F 39.2 °F 100% 30.06 in 8.0 mi SW 3.5 mph - N/A   Clear
10:35 PM 35.6 °F - 35.6 °F 100% 30.06 in 7.0 mi Calm Calm - N/A   Clear
10:55 PM 35.6 °F 32.8 °F 35.6 °F 100% 30.06 in 7.0 mi NNE 3.5 mph - N/A   Clear
11:15 PM 37.4 °F - 37.4 °F 100% 30.06 in 8.0 mi Calm Calm - N/A   Clear
11:35 PM 39.2 °F - 37.4 °F 93% 30.06 in 8.0 mi Calm Calm - N/A   Clear
11:55 PM 37.4 °F - 37.4 °F 100% 30.06 in 7.0 mi Calm Calm - N/A   Clear